sensor_id;sensor_type;location;lat;lon;timestamp;P1;durP1;ratioP1;P2;durP2;ratioP2
23519;SDS011;11936;50.820;4.336;2023-03-01T00:01:39;11.52;;;6.60;;
23519;SDS011;11936;50.820;4.336;2023-03-01T00:04:05;9.73;;;6.20;;
23519;SDS011;11936;50.820;4.336;2023-03-01T00:06:30;11.30;;;7.05;;
23519;SDS011;11936;50.820;4.336;2023-03-01T00:08:56;11.50;;;6.60;;
23519;SDS011;11936;50.820;4.336;2023-03-01T00:11:23;12.27;;;6.35;;
23519;SDS011;11936;50.820;4.336;2023-03-01T00:13:53;11.15;;;6.47;;
23519;SDS011;11936;50.820;4.336;2023-03-01T00:16:22;12.38;;;6.47;;
23519;SDS011;11936;50.820;4.336;2023-03-01T00:18:56;9.30;;;6.50;;
23519;SDS011;11936;50.820;4.336;2023-03-01T00:21:22;10.25;;;6.32;;
23519;SDS011;11936;50.820;4.336;2023-03-01T00:23:49;9.02;;;6.68;;
23519;SDS011;11936;50.820;4.336;2023-03-01T00:26:15;11.93;;;6.05;;
23519;SDS011;11936;50.820;4.336;2023-03-01T00:28:41;8.35;;;6.40;;
23519;SDS011;11936;50.820;4.336;2023-03-01T00:31:12;9.18;;;6.38;;
23519;SDS011;11936;50.820;4.336;2023-03-01T00:33:40;10.90;;;6.78;;
23519;SDS011;11936;50.820;4.336;2023-03-01T00:36:06;9.13;;;6.60;;
23519;SDS011;11936;50.820;4.336;2023-03-01T00:38:39;11.00;;;6.85;;
23519;SDS011;11936;50.820;4.336;2023-03-01T00:41:10;8.98;;;6.20;;
23519;SDS011;11936;50.820;4.336;2023-03-01T00:43:40;10.98;;;5.93;;
23519;SDS011;11936;50.820;4.336;2023-03-01T00:46:07;11.43;;;6.07;;
23519;SDS011;11936;50.820;4.336;2023-03-01T00:48:35;7.72;;;5.95;;
23519;SDS011;11936;50.820;4.336;2023-03-01T00:51:07;9.25;;;6.65;;
23519;SDS011;11936;50.820;4.336;2023-03-01T00:53:34;9.57;;;6.10;;
23519;SDS011;11936;50.820;4.336;2023-03-01T00:56:00;10.32;;;6.40;;
23519;SDS011;11936;50.820;4.336;2023-03-01T00:58:27;9.07;;;6.57;;
23519;SDS011;11936;50.820;4.336;2023-03-01T01:00:52;8.32;;;5.95;;
23519;SDS011;11936;50.820;4.336;2023-03-01T01:03:18;12.90;;;6.53;;
23519;SDS011;11936;50.820;4.336;2023-03-01T01:05:44;12.05;;;6.28;;
23519;SDS011;11936;50.820;4.336;2023-03-01T01:08:10;8.95;;;6.22;;
23519;SDS011;11936;50.820;4.336;2023-03-01T01:10:36;10.68;;;6.32;;
23519;SDS011;11936;50.820;4.336;2023-03-01T01:13:02;7.45;;;6.07;;
23519;SDS011;11936;50.820;4.336;2023-03-01T01:15:28;8.80;;;6.53;;
23519;SDS011;11936;50.820;4.336;2023-03-01T01:17:54;10.10;;;6.18;;
23519;SDS011;11936;50.820;4.336;2023-03-01T01:20:19;8.90;;;6.63;;
23519;SDS011;11936;50.820;4.336;2023-03-01T01:22:45;9.30;;;6.57;;
23519;SDS011;11936;50.820;4.336;2023-03-01T01:25:11;10.60;;;6.80;;
23519;SDS011;11936;50.820;4.336;2023-03-01T01:27:36;7.70;;;6.28;;
23519;SDS011;11936;50.820;4.336;2023-03-01T01:30:03;10.02;;;6.35;;
23519;SDS011;11936;50.820;4.336;2023-03-01T01:32:29;7.70;;;5.97;;
23519;SDS011;11936;50.820;4.336;2023-03-01T01:34:55;10.07;;;6.63;;
23519;SDS011;11936;50.820;4.336;2023-03-01T01:37:20;10.05;;;6.30;;
23519;SDS011;11936;50.820;4.336;2023-03-01T01:39:46;7.22;;;5.63;;
23519;SDS011;11936;50.820;4.336;2023-03-01T01:42:14;8.77;;;6.07;;
23519;SDS011;11936;50.820;4.336;2023-03-01T01:47:11;8.43;;;6.50;;
23519;SDS011;11936;50.820;4.336;2023-03-01T01:49:47;8.40;;;6.07;;
23519;SDS011;11936;50.820;4.336;2023-03-01T01:57:35;9.50;;;6.68;;
23519;SDS011;11936;50.820;4.336;2023-03-01T02:00:16;9.57;;;6.70;;
23519;SDS011;11936;50.820;4.336;2023-03-01T02:02:44;11.20;;;6.40;;
23519;SDS011;11936;50.820;4.336;2023-03-01T02:05:15;9.90;;;6.68;;
23519;SDS011;11936;50.820;4.336;2023-03-01T02:07:42;12.30;;;6.70;;
23519;SDS011;11936;50.820;4.336;2023-03-01T02:10:09;9.45;;;5.68;;
23519;SDS011;11936;50.820;4.336;2023-03-01T02:12:35;10.88;;;7.13;;
23519;SDS011;11936;50.820;4.336;2023-03-01T02:15:02;7.90;;;6.30;;
23519;SDS011;11936;50.820;4.336;2023-03-01T02:17:28;8.63;;;5.70;;
23519;SDS011;11936;50.820;4.336;2023-03-01T02:20:10;12.60;;;8.18;;
23519;SDS011;11936;50.820;4.336;2023-03-01T02:22:38;11.93;;;6.13;;
23519;SDS011;11936;50.820;4.336;2023-03-01T02:25:10;8.70;;;6.90;;
23519;SDS011;11936;50.820;4.336;2023-03-01T02:27:49;9.98;;;6.90;;
23519;SDS011;11936;50.820;4.336;2023-03-01T02:30:37;9.43;;;6.38;;
23519;SDS011;11936;50.820;4.336;2023-03-01T02:33:23;10.35;;;6.43;;
23519;SDS011;11936;50.820;4.336;2023-03-01T02:35:50;12.30;;;5.95;;
23519;SDS011;11936;50.820;4.336;2023-03-01T02:38:17;11.45;;;6.85;;
23519;SDS011;11936;50.820;4.336;2023-03-01T02:40:42;9.10;;;6.05;;
23519;SDS011;11936;50.820;4.336;2023-03-01T02:43:09;10.35;;;5.90;;
23519;SDS011;11936;50.820;4.336;2023-03-01T02:45:37;9.68;;;6.22;;
23519;SDS011;11936;50.820;4.336;2023-03-01T02:48:02;8.68;;;6.05;;
23519;SDS011;11936;50.820;4.336;2023-03-01T02:55:31;8.98;;;6.35;;
23519;SDS011;11936;50.820;4.336;2023-03-01T02:57:57;11.05;;;6.55;;
23519;SDS011;11936;50.820;4.336;2023-03-01T03:00:25;9.10;;;6.47;;
23519;SDS011;11936;50.820;4.336;2023-03-01T03:02:54;14.23;;;6.50;;
23519;SDS011;11936;50.820;4.336;2023-03-01T03:05:26;9.68;;;6.82;;
23519;SDS011;11936;50.820;4.336;2023-03-01T03:07:53;9.68;;;6.78;;
23519;SDS011;11936;50.820;4.336;2023-03-01T03:10:21;13.25;;;7.13;;
23519;SDS011;11936;50.820;4.336;2023-03-01T03:12:52;6.75;;;5.72;;
23519;SDS011;11936;50.820;4.336;2023-03-01T03:15:28;9.35;;;6.20;;
23519;SDS011;11936;50.820;4.336;2023-03-01T03:17:54;11.63;;;6.55;;
23519;SDS011;11936;50.820;4.336;2023-03-01T03:20:21;8.25;;;6.32;;
23519;SDS011;11936;50.820;4.336;2023-03-01T03:25:17;8.73;;;5.85;;
23519;SDS011;11936;50.820;4.336;2023-03-01T03:27:44;10.60;;;6.68;;
23519;SDS011;11936;50.820;4.336;2023-03-01T03:30:12;7.20;;;5.97;;
23519;SDS011;11936;50.820;4.336;2023-03-01T03:32:40;11.13;;;7.30;;
23519;SDS011;11936;50.820;4.336;2023-03-01T03:35:07;8.80;;;7.25;;
23519;SDS011;11936;50.820;4.336;2023-03-01T03:37:38;9.65;;;6.63;;
23519;SDS011;11936;50.820;4.336;2023-03-01T03:40:24;9.13;;;6.40;;
23519;SDS011;11936;50.820;4.336;2023-03-01T03:42:49;7.50;;;6.10;;
23519;SDS011;11936;50.820;4.336;2023-03-01T03:45:16;9.13;;;6.45;;
23519;SDS011;11936;50.820;4.336;2023-03-01T03:47:42;11.93;;;6.80;;
23519;SDS011;11936;50.820;4.336;2023-03-01T03:50:09;10.23;;;6.50;;
23519;SDS011;11936;50.820;4.336;2023-03-01T03:52:36;12.85;;;6.90;;
23519;SDS011;11936;50.820;4.336;2023-03-01T03:55:02;9.95;;;6.40;;
23519;SDS011;11936;50.820;4.336;2023-03-01T03:57:28;9.15;;;6.63;;
23519;SDS011;11936;50.820;4.336;2023-03-01T03:59:54;8.85;;;6.93;;
23519;SDS011;11936;50.820;4.336;2023-03-01T04:02:19;14.77;;;7.00;;
23519;SDS011;11936;50.820;4.336;2023-03-01T04:04:47;14.23;;;6.90;;
23519;SDS011;11936;50.820;4.336;2023-03-01T04:07:14;11.15;;;7.57;;
23519;SDS011;11936;50.820;4.336;2023-03-01T04:09:41;11.48;;;7.15;;
23519;SDS011;11936;50.820;4.336;2023-03-01T04:12:07;9.10;;;6.80;;
23519;SDS011;11936;50.820;4.336;2023-03-01T04:14:33;10.70;;;6.85;;
23519;SDS011;11936;50.820;4.336;2023-03-01T04:16:59;8.65;;;7.40;;
23519;SDS011;11936;50.820;4.336;2023-03-01T04:19:25;11.75;;;7.07;;
23519;SDS011;11936;50.820;4.336;2023-03-01T04:21:51;14.73;;;7.22;;
23519;SDS011;11936;50.820;4.336;2023-03-01T04:24:18;13.80;;;7.32;;
23519;SDS011;11936;50.820;4.336;2023-03-01T04:26:43;14.13;;;7.30;;
23519;SDS011;11936;50.820;4.336;2023-03-01T04:29:09;9.75;;;6.47;;
23519;SDS011;11936;50.820;4.336;2023-03-01T04:31:34;8.90;;;7.07;;
23519;SDS011;11936;50.820;4.336;2023-03-01T04:34:00;32.13;;;16.02;;
23519;SDS011;11936;50.820;4.336;2023-03-01T04:36:26;17.70;;;9.18;;
23519;SDS011;11936;50.820;4.336;2023-03-01T04:38:53;9.25;;;6.65;;
23519;SDS011;11936;50.820;4.336;2023-03-01T04:41:20;9.98;;;7.45;;
23519;SDS011;11936;50.820;4.336;2023-03-01T04:43:48;9.27;;;7.15;;
23519;SDS011;11936;50.820;4.336;2023-03-01T04:46:15;20.23;;;7.18;;
23519;SDS011;11936;50.820;4.336;2023-03-01T04:48:42;8.88;;;6.63;;
23519;SDS011;11936;50.820;4.336;2023-03-01T04:51:09;11.52;;;7.40;;
23519;SDS011;11936;50.820;4.336;2023-03-01T04:53:38;10.88;;;7.00;;
23519;SDS011;11936;50.820;4.336;2023-03-01T04:56:04;10.05;;;6.97;;
23519;SDS011;11936;50.820;4.336;2023-03-01T04:58:30;11.50;;;6.68;;
23519;SDS011;11936;50.820;4.336;2023-03-01T05:00:56;16.70;;;6.97;;
23519;SDS011;11936;50.820;4.336;2023-03-01T05:03:21;13.52;;;6.95;;
23519;SDS011;11936;50.820;4.336;2023-03-01T05:05:48;8.10;;;6.53;;
23519;SDS011;11936;50.820;4.336;2023-03-01T05:08:15;9.20;;;7.03;;
23519;SDS011;11936;50.820;4.336;2023-03-01T05:10:53;28.05;;;10.57;;
23519;SDS011;11936;50.820;4.336;2023-03-01T05:13:21;7.65;;;6.43;;
23519;SDS011;11936;50.820;4.336;2023-03-01T05:15:54;11.63;;;7.22;;
23519;SDS011;11936;50.820;4.336;2023-03-01T05:18:24;13.55;;;6.35;;
23519;SDS011;11936;50.820;4.336;2023-03-01T05:20:52;12.00;;;7.53;;
23519;SDS011;11936;50.820;4.336;2023-03-01T05:23:26;11.98;;;6.85;;
23519;SDS011;11936;50.820;4.336;2023-03-01T05:25:51;10.25;;;6.50;;
23519;SDS011;11936;50.820;4.336;2023-03-01T05:28:17;12.88;;;7.25;;
23519;SDS011;11936;50.820;4.336;2023-03-01T05:30:44;12.48;;;7.55;;
23519;SDS011;11936;50.820;4.336;2023-03-01T05:33:10;12.77;;;7.30;;
23519;SDS011;11936;50.820;4.336;2023-03-01T05:35:43;11.43;;;7.15;;
23519;SDS011;11936;50.820;4.336;2023-03-01T05:38:12;11.18;;;7.57;;
23519;SDS011;11936;50.820;4.336;2023-03-01T05:43:04;11.75;;;7.60;;
23519;SDS011;11936;50.820;4.336;2023-03-01T05:45:30;19.73;;;7.75;;
23519;SDS011;11936;50.820;4.336;2023-03-01T05:48:00;18.33;;;7.35;;
23519;SDS011;11936;50.820;4.336;2023-03-01T05:50:26;9.52;;;6.43;;
23519;SDS011;11936;50.820;4.336;2023-03-01T05:52:58;26.80;;;7.65;;
23519;SDS011;11936;50.820;4.336;2023-03-01T05:55:25;9.50;;;7.00;;
23519;SDS011;11936;50.820;4.336;2023-03-01T05:57:52;12.45;;;8.52;;
23519;SDS011;11936;50.820;4.336;2023-03-01T06:00:18;11.82;;;7.55;;
23519;SDS011;11936;50.820;4.336;2023-03-01T06:02:45;9.20;;;7.35;;
23519;SDS011;11936;50.820;4.336;2023-03-01T06:05:11;17.02;;;7.50;;
23519;SDS011;11936;50.820;4.336;2023-03-01T06:07:39;13.45;;;7.53;;
23519;SDS011;11936;50.820;4.336;2023-03-01T06:10:06;12.68;;;7.10;;
23519;SDS011;11936;50.820;4.336;2023-03-01T06:12:33;12.60;;;7.00;;
23519;SDS011;11936;50.820;4.336;2023-03-01T06:15:00;14.88;;;7.82;;
23519;SDS011;11936;50.820;4.336;2023-03-01T06:17:28;11.02;;;7.53;;
23519;SDS011;11936;50.820;4.336;2023-03-01T06:19:54;13.63;;;7.35;;
23519;SDS011;11936;50.820;4.336;2023-03-01T06:22:20;11.15;;;7.47;;
23519;SDS011;11936;50.820;4.336;2023-03-01T06:24:45;10.15;;;7.05;;
23519;SDS011;11936;50.820;4.336;2023-03-01T06:27:11;9.85;;;6.68;;
23519;SDS011;11936;50.820;4.336;2023-03-01T06:29:37;14.63;;;8.68;;
23519;SDS011;11936;50.820;4.336;2023-03-01T06:32:02;19.67;;;7.95;;
23519;SDS011;11936;50.820;4.336;2023-03-01T06:34:28;14.52;;;6.78;;
23519;SDS011;11936;50.820;4.336;2023-03-01T06:36:54;9.23;;;7.32;;
23519;SDS011;11936;50.820;4.336;2023-03-01T06:39:20;12.82;;;7.13;;
23519;SDS011;11936;50.820;4.336;2023-03-01T06:41:45;21.38;;;7.68;;
23519;SDS011;11936;50.820;4.336;2023-03-01T06:44:11;23.35;;;7.60;;
23519;SDS011;11936;50.820;4.336;2023-03-01T06:46:36;9.65;;;6.93;;
23519;SDS011;11936;50.820;4.336;2023-03-01T06:49:03;15.55;;;7.82;;
23519;SDS011;11936;50.820;4.336;2023-03-01T06:51:32;12.63;;;8.45;;
23519;SDS011;11936;50.820;4.336;2023-03-01T06:53:58;14.20;;;7.70;;
23519;SDS011;11936;50.820;4.336;2023-03-01T06:56:23;12.57;;;7.68;;
23519;SDS011;11936;50.820;4.336;2023-03-01T06:58:49;14.23;;;7.72;;
23519;SDS011;11936;50.820;4.336;2023-03-01T07:01:15;19.75;;;8.20;;
23519;SDS011;11936;50.820;4.336;2023-03-01T07:03:40;15.60;;;7.75;;
23519;SDS011;11936;50.820;4.336;2023-03-01T07:06:09;19.67;;;8.25;;
23519;SDS011;11936;50.820;4.336;2023-03-01T07:08:35;16.27;;;7.90;;
23519;SDS011;11936;50.820;4.336;2023-03-01T07:11:00;19.58;;;8.88;;
23519;SDS011;11936;50.820;4.336;2023-03-01T07:13:27;12.35;;;9.02;;
23519;SDS011;11936;50.820;4.336;2023-03-01T07:15:53;15.95;;;8.25;;
23519;SDS011;11936;50.820;4.336;2023-03-01T07:18:18;11.90;;;7.95;;
23519;SDS011;11936;50.820;4.336;2023-03-01T07:20:44;16.95;;;8.15;;
23519;SDS011;11936;50.820;4.336;2023-03-01T07:23:10;11.05;;;7.80;;
23519;SDS011;11936;50.820;4.336;2023-03-01T07:25:36;22.48;;;9.15;;
23519;SDS011;11936;50.820;4.336;2023-03-01T07:28:01;13.75;;;7.90;;
23519;SDS011;11936;50.820;4.336;2023-03-01T07:30:27;17.15;;;8.40;;
23519;SDS011;11936;50.820;4.336;2023-03-01T07:32:54;13.85;;;7.65;;
23519;SDS011;11936;50.820;4.336;2023-03-01T07:35:20;14.07;;;8.02;;
23519;SDS011;11936;50.820;4.336;2023-03-01T07:37:46;13.88;;;7.47;;
23519;SDS011;11936;50.820;4.336;2023-03-01T07:40:12;19.30;;;8.25;;
23519;SDS011;11936;50.820;4.336;2023-03-01T07:42:37;17.10;;;8.77;;
23519;SDS011;11936;50.820;4.336;2023-03-01T07:45:04;13.60;;;8.45;;
23519;SDS011;11936;50.820;4.336;2023-03-01T07:47:31;22.10;;;8.95;;
23519;SDS011;11936;50.820;4.336;2023-03-01T07:49:57;13.68;;;7.93;;
23519;SDS011;11936;50.820;4.336;2023-03-01T07:52:22;24.95;;;9.45;;
23519;SDS011;11936;50.820;4.336;2023-03-01T07:54:48;13.50;;;8.38;;
23519;SDS011;11936;50.820;4.336;2023-03-01T07:57:14;14.70;;;8.00;;
23519;SDS011;11936;50.820;4.336;2023-03-01T07:59:39;20.02;;;9.18;;
23519;SDS011;11936;50.820;4.336;2023-03-01T08:02:05;14.88;;;9.48;;
23519;SDS011;11936;50.820;4.336;2023-03-01T08:04:31;14.55;;;8.40;;
23519;SDS011;11936;50.820;4.336;2023-03-01T08:06:58;18.55;;;9.15;;
23519;SDS011;11936;50.820;4.336;2023-03-01T08:09:24;15.30;;;8.75;;
23519;SDS011;11936;50.820;4.336;2023-03-01T08:11:49;15.23;;;8.48;;
23519;SDS011;11936;50.820;4.336;2023-03-01T08:14:15;16.42;;;9.95;;
23519;SDS011;11936;50.820;4.336;2023-03-01T08:16:41;16.75;;;7.97;;
23519;SDS011;11936;50.820;4.336;2023-03-01T08:19:07;15.23;;;8.77;;
23519;SDS011;11936;50.820;4.336;2023-03-01T08:21:34;16.75;;;7.25;;
23519;SDS011;11936;50.820;4.336;2023-03-01T08:24:01;15.65;;;8.18;;
23519;SDS011;11936;50.820;4.336;2023-03-01T08:26:30;13.52;;;8.50;;
23519;SDS011;11936;50.820;4.336;2023-03-01T08:28:57;14.52;;;8.82;;
23519;SDS011;11936;50.820;4.336;2023-03-01T08:31:24;15.32;;;8.82;;
23519;SDS011;11936;50.820;4.336;2023-03-01T08:33:55;32.05;;;9.68;;
23519;SDS011;11936;50.820;4.336;2023-03-01T08:36:28;19.00;;;8.30;;
23519;SDS011;11936;50.820;4.336;2023-03-01T08:38:56;13.55;;;8.50;;
23519;SDS011;11936;50.820;4.336;2023-03-01T08:41:23;20.55;;;8.43;;
23519;SDS011;11936;50.820;4.336;2023-03-01T08:43:49;22.80;;;9.55;;
23519;SDS011;11936;50.820;4.336;2023-03-01T08:46:14;18.40;;;8.73;;
23519;SDS011;11936;50.820;4.336;2023-03-01T08:48:40;15.05;;;7.93;;
23519;SDS011;11936;50.820;4.336;2023-03-01T08:51:12;15.40;;;8.68;;
23519;SDS011;11936;50.820;4.336;2023-03-01T08:53:39;13.60;;;9.18;;
23519;SDS011;11936;50.820;4.336;2023-03-01T08:56:06;15.85;;;9.13;;
23519;SDS011;11936;50.820;4.336;2023-03-01T08:58:33;13.35;;;9.05;;
23519;SDS011;11936;50.820;4.336;2023-03-01T09:01:00;16.95;;;8.57;;
23519;SDS011;11936;50.820;4.336;2023-03-01T09:03:31;10.85;;;8.57;;
23519;SDS011;11936;50.820;4.336;2023-03-01T09:05:59;18.33;;;9.63;;
23519;SDS011;11936;50.820;4.336;2023-03-01T09:08:26;20.67;;;9.20;;
23519;SDS011;11936;50.820;4.336;2023-03-01T09:10:52;12.45;;;8.48;;
23519;SDS011;11936;50.820;4.336;2023-03-01T09:13:18;17.73;;;9.43;;
23519;SDS011;11936;50.820;4.336;2023-03-01T09:15:43;14.90;;;9.70;;
23519;SDS011;11936;50.820;4.336;2023-03-01T09:18:09;14.15;;;8.55;;
23519;SDS011;11936;50.820;4.336;2023-03-01T09:20:34;14.95;;;8.48;;
23519;SDS011;11936;50.820;4.336;2023-03-01T09:23:00;14.32;;;9.68;;
23519;SDS011;11936;50.820;4.336;2023-03-01T09:25:26;15.10;;;9.95;;
23519;SDS011;11936;50.820;4.336;2023-03-01T09:27:52;18.02;;;8.50;;
23519;SDS011;11936;50.820;4.336;2023-03-01T09:30:18;14.73;;;9.00;;
23519;SDS011;11936;50.820;4.336;2023-03-01T09:32:44;12.32;;;8.00;;
23519;SDS011;11936;50.820;4.336;2023-03-01T09:35:10;18.08;;;9.75;;
23519;SDS011;11936;50.820;4.336;2023-03-01T09:37:36;18.45;;;9.27;;
23519;SDS011;11936;50.820;4.336;2023-03-01T09:40:03;14.40;;;9.15;;
23519;SDS011;11936;50.820;4.336;2023-03-01T09:42:31;11.95;;;9.68;;
23519;SDS011;11936;50.820;4.336;2023-03-01T09:45:04;19.75;;;10.18;;
23519;SDS011;11936;50.820;4.336;2023-03-01T09:47:35;16.27;;;10.20;;
23519;SDS011;11936;50.820;4.336;2023-03-01T09:50:15;12.93;;;9.55;;
23519;SDS011;11936;50.820;4.336;2023-03-01T09:53:01;18.88;;;10.35;;
23519;SDS011;11936;50.820;4.336;2023-03-01T09:55:37;14.13;;;8.75;;
23519;SDS011;11936;50.820;4.336;2023-03-01T09:58:27;25.65;;;10.10;;
23519;SDS011;11936;50.820;4.336;2023-03-01T10:01:21;15.52;;;9.52;;
23519;SDS011;11936;50.820;4.336;2023-03-01T10:04:05;16.10;;;10.60;;
23519;SDS011;11936;50.820;4.336;2023-03-01T10:06:49;19.33;;;10.63;;
23519;SDS011;11936;50.820;4.336;2023-03-01T10:09:37;16.00;;;10.30;;
23519;SDS011;11936;50.820;4.336;2023-03-01T10:12:24;29.00;;;10.27;;
23519;SDS011;11936;50.820;4.336;2023-03-01T10:15:04;16.13;;;9.25;;
23519;SDS011;11936;50.820;4.336;2023-03-01T10:17:41;22.95;;;10.38;;
23519;SDS011;11936;50.820;4.336;2023-03-01T10:22:41;16.65;;;10.27;;
23519;SDS011;11936;50.820;4.336;2023-03-01T10:25:08;18.10;;;10.15;;
23519;SDS011;11936;50.820;4.336;2023-03-01T10:27:42;18.65;;;10.13;;
23519;SDS011;11936;50.820;4.336;2023-03-01T10:32:47;17.48;;;10.25;;
23519;SDS011;11936;50.820;4.336;2023-03-01T10:40:53;14.57;;;9.40;;
23519;SDS011;11936;50.820;4.336;2023-03-01T10:43:47;24.83;;;11.15;;
23519;SDS011;11936;50.820;4.336;2023-03-01T10:51:42;23.48;;;9.65;;
23519;SDS011;11936;50.820;4.336;2023-03-01T10:54:19;17.60;;;10.18;;
23519;SDS011;11936;50.820;4.336;2023-03-01T10:56:49;13.07;;;9.10;;
23519;SDS011;11936;50.820;4.336;2023-03-01T11:04:35;13.13;;;9.27;;
23519;SDS011;11936;50.820;4.336;2023-03-01T11:07:01;18.80;;;9.63;;
23519;SDS011;11936;50.820;4.336;2023-03-01T11:09:30;14.60;;;9.60;;
23519;SDS011;11936;50.820;4.336;2023-03-01T11:12:03;23.38;;;9.73;;
23519;SDS011;11936;50.820;4.336;2023-03-01T11:14:33;20.70;;;8.80;;
23519;SDS011;11936;50.820;4.336;2023-03-01T11:19:29;14.48;;;9.88;;
23519;SDS011;11936;50.820;4.336;2023-03-01T11:22:01;18.05;;;9.73;;
23519;SDS011;11936;50.820;4.336;2023-03-01T11:24:31;11.32;;;8.52;;
23519;SDS011;11936;50.820;4.336;2023-03-01T11:27:11;14.07;;;8.82;;
23519;SDS011;11936;50.820;4.336;2023-03-01T11:29:50;11.05;;;9.05;;
23519;SDS011;11936;50.820;4.336;2023-03-01T11:32:20;13.02;;;8.23;;
23519;SDS011;11936;50.820;4.336;2023-03-01T11:37:38;18.73;;;9.38;;
23519;SDS011;11936;50.820;4.336;2023-03-01T11:40:13;14.55;;;9.27;;
23519;SDS011;11936;50.820;4.336;2023-03-01T11:45:47;16.00;;;8.57;;
23519;SDS011;11936;50.820;4.336;2023-03-01T11:51:09;16.35;;;9.18;;
23519;SDS011;11936;50.820;4.336;2023-03-01T11:53:48;14.88;;;9.38;;
23519;SDS011;11936;50.820;4.336;2023-03-01T12:03:14;12.70;;;8.52;;
23519;SDS011;11936;50.820;4.336;2023-03-01T12:05:23;13.00;;;8.98;;
23519;SDS011;11936;50.820;4.336;2023-03-01T12:07:59;15.02;;;8.65;;
23519;SDS011;11936;50.820;4.336;2023-03-01T12:16:22;28.38;;;8.90;;
23519;SDS011;11936;50.820;4.336;2023-03-01T12:19:08;26.40;;;8.98;;
23519;SDS011;11936;50.820;4.336;2023-03-01T12:29:53;11.00;;;7.40;;
23519;SDS011;11936;50.820;4.336;2023-03-01T12:32:38;19.15;;;8.90;;
23519;SDS011;11936;50.820;4.336;2023-03-01T12:37:56;13.23;;;7.95;;
23519;SDS011;11936;50.820;4.336;2023-03-01T12:46:18;20.52;;;9.32;;
23519;SDS011;11936;50.820;4.336;2023-03-01T12:51:36;17.13;;;8.15;;
23519;SDS011;11936;50.820;4.336;2023-03-01T12:54:11;15.52;;;8.63;;
23519;SDS011;11936;50.820;4.336;2023-03-01T12:56:40;18.25;;;8.18;;
23519;SDS011;11936;50.820;4.336;2023-03-01T13:02:10;15.45;;;8.55;;
23519;SDS011;11936;50.820;4.336;2023-03-01T13:10:17;12.80;;;8.75;;
23519;SDS011;11936;50.820;4.336;2023-03-01T13:18:01;17.45;;;8.32;;
23519;SDS011;11936;50.820;4.336;2023-03-01T13:26:19;14.25;;;8.13;;
23519;SDS011;11936;50.820;4.336;2023-03-01T13:33:45;11.38;;;7.72;;
23519;SDS011;11936;50.820;4.336;2023-03-01T13:39:27;13.02;;;8.00;;
23519;SDS011;11936;50.820;4.336;2023-03-01T13:41:56;9.80;;;7.68;;
23519;SDS011;11936;50.820;4.336;2023-03-01T13:46:55;12.25;;;8.13;;
23519;SDS011;11936;50.820;4.336;2023-03-01T13:49:26;13.70;;;7.28;;
23519;SDS011;11936;50.820;4.336;2023-03-01T13:51:55;17.05;;;8.40;;
23519;SDS011;11936;50.820;4.336;2023-03-01T13:54:31;18.20;;;8.95;;
23519;SDS011;11936;50.820;4.336;2023-03-01T13:56:58;13.20;;;8.27;;
23519;SDS011;11936;50.820;4.336;2023-03-01T13:59:28;20.65;;;8.75;;
23519;SDS011;11936;50.820;4.336;2023-03-01T14:01:57;12.18;;;8.68;;
23519;SDS011;11936;50.820;4.336;2023-03-01T14:09:52;14.68;;;8.27;;
23519;SDS011;11936;50.820;4.336;2023-03-01T14:12:29;13.35;;;7.55;;
23519;SDS011;11936;50.820;4.336;2023-03-01T14:20:38;11.85;;;7.65;;
23519;SDS011;11936;50.820;4.336;2023-03-01T14:23:12;11.30;;;7.75;;
23519;SDS011;11936;50.820;4.336;2023-03-01T14:25:46;12.27;;;7.60;;
23519;SDS011;11936;50.820;4.336;2023-03-01T14:30:43;13.20;;;8.57;;
23519;SDS011;11936;50.820;4.336;2023-03-01T14:33:18;14.65;;;8.18;;
23519;SDS011;11936;50.820;4.336;2023-03-01T14:36:02;12.70;;;8.02;;
23519;SDS011;11936;50.820;4.336;2023-03-01T14:38:45;17.55;;;7.70;;
23519;SDS011;11936;50.820;4.336;2023-03-01T14:43:46;11.95;;;8.38;;
23519;SDS011;11936;50.820;4.336;2023-03-01T14:49:10;16.05;;;8.38;;
23519;SDS011;11936;50.820;4.336;2023-03-01T14:51:37;13.63;;;8.88;;
23519;SDS011;11936;50.820;4.336;2023-03-01T14:54:10;15.43;;;9.47;;
23519;SDS011;11936;50.820;4.336;2023-03-01T14:56:58;11.52;;;8.18;;
23519;SDS011;11936;50.820;4.336;2023-03-01T14:59:25;14.13;;;8.50;;
23519;SDS011;11936;50.820;4.336;2023-03-01T15:01:51;15.73;;;9.20;;
23519;SDS011;11936;50.820;4.336;2023-03-01T15:04:20;16.90;;;9.02;;
23519;SDS011;11936;50.820;4.336;2023-03-01T15:06:47;12.20;;;8.50;;
23519;SDS011;11936;50.820;4.336;2023-03-01T15:09:16;14.68;;;8.88;;
23519;SDS011;11936;50.820;4.336;2023-03-01T15:11:43;12.45;;;8.30;;
23519;SDS011;11936;50.820;4.336;2023-03-01T15:14:29;13.60;;;9.35;;
23519;SDS011;11936;50.820;4.336;2023-03-01T15:17:15;15.57;;;9.27;;
23519;SDS011;11936;50.820;4.336;2023-03-01T15:20:15;15.23;;;9.07;;
23519;SDS011;11936;50.820;4.336;2023-03-01T15:22:46;13.02;;;8.52;;
23519;SDS011;11936;50.820;4.336;2023-03-01T15:25:21;20.10;;;9.55;;
23519;SDS011;11936;50.820;4.336;2023-03-01T15:27:52;19.65;;;9.80;;
23519;SDS011;11936;50.820;4.336;2023-03-01T15:32:48;11.40;;;6.63;;
23519;SDS011;11936;50.820;4.336;2023-03-01T15:41:22;13.32;;;8.57;;
23519;SDS011;11936;50.820;4.336;2023-03-01T15:43:48;17.70;;;9.25;;
23519;SDS011;11936;50.820;4.336;2023-03-01T15:48:46;14.93;;;8.30;;
23519;SDS011;11936;50.820;4.336;2023-03-01T15:51:14;14.70;;;9.07;;
23519;SDS011;11936;50.820;4.336;2023-03-01T15:53:41;12.23;;;8.73;;
23519;SDS011;11936;50.820;4.336;2023-03-01T15:56:09;14.13;;;8.98;;
23519;SDS011;11936;50.820;4.336;2023-03-01T15:58:35;13.60;;;9.05;;
23519;SDS011;11936;50.820;4.336;2023-03-01T16:01:00;10.88;;;8.48;;
23519;SDS011;11936;50.820;4.336;2023-03-01T16:03:28;16.80;;;9.50;;
23519;SDS011;11936;50.820;4.336;2023-03-01T16:05:54;19.75;;;10.15;;
23519;SDS011;11936;50.820;4.336;2023-03-01T16:08:20;20.00;;;9.00;;
23519;SDS011;11936;50.820;4.336;2023-03-01T16:10:46;13.75;;;8.20;;
23519;SDS011;11936;50.820;4.336;2023-03-01T16:13:13;16.17;;;7.93;;
23519;SDS011;11936;50.820;4.336;2023-03-01T16:15:38;23.35;;;9.45;;
23519;SDS011;11936;50.820;4.336;2023-03-01T16:18:05;22.55;;;8.50;;
23519;SDS011;11936;50.820;4.336;2023-03-01T16:20:32;12.13;;;7.65;;
23519;SDS011;11936;50.820;4.336;2023-03-01T16:23:02;17.27;;;7.97;;
23519;SDS011;11936;50.820;4.336;2023-03-01T16:25:30;17.75;;;8.35;;
23519;SDS011;11936;50.820;4.336;2023-03-01T16:27:56;12.63;;;8.27;;
23519;SDS011;11936;50.820;4.336;2023-03-01T16:30:24;29.30;;;9.30;;
23519;SDS011;11936;50.820;4.336;2023-03-01T16:32:51;14.45;;;8.35;;
23519;SDS011;11936;50.820;4.336;2023-03-01T16:35:17;15.70;;;9.05;;
23519;SDS011;11936;50.820;4.336;2023-03-01T16:37:45;13.57;;;8.50;;
23519;SDS011;11936;50.820;4.336;2023-03-01T16:40:19;13.32;;;8.93;;
23519;SDS011;11936;50.820;4.336;2023-03-01T16:42:49;17.92;;;8.10;;
23519;SDS011;11936;50.820;4.336;2023-03-01T16:45:15;18.40;;;8.40;;
23519;SDS011;11936;50.820;4.336;2023-03-01T16:47:41;15.00;;;8.63;;
23519;SDS011;11936;50.820;4.336;2023-03-01T16:50:07;14.70;;;8.43;;
23519;SDS011;11936;50.820;4.336;2023-03-01T16:52:33;16.75;;;9.20;;
23519;SDS011;11936;50.820;4.336;2023-03-01T16:54:59;16.73;;;8.52;;
23519;SDS011;11936;50.820;4.336;2023-03-01T16:57:25;17.70;;;9.13;;
23519;SDS011;11936;50.820;4.336;2023-03-01T16:59:51;15.52;;;8.85;;
23519;SDS011;11936;50.820;4.336;2023-03-01T17:02:18;14.10;;;9.05;;
23519;SDS011;11936;50.820;4.336;2023-03-01T17:04:44;23.20;;;9.43;;
23519;SDS011;11936;50.820;4.336;2023-03-01T17:07:16;21.83;;;8.80;;
23519;SDS011;11936;50.820;4.336;2023-03-01T17:09:41;15.35;;;7.97;;